createdAt,value
2018-12-31T00:00:52.235Z,8.50
2018-12-31T00:03:20.837Z,8.40
2018-12-31T00:05:49.570Z,8.40
2018-12-31T00:08:18.158Z,8.40
2018-12-31T00:10:46.739Z,8.40
2018-12-31T00:13:15.294Z,8.30
2018-12-31T00:15:43.878Z,8.40
2018-12-31T00:18:12.647Z,8.30
2018-12-31T00:20:41.271Z,8.20
2018-12-31T00:23:09.940Z,8.10
2018-12-31T00:25:38.631Z,8.10
2018-12-31T00:28:07.258Z,8.10
2018-12-31T00:30:35.926Z,8.10
2018-12-31T00:33:04.559Z,8.10
2018-12-31T00:35:33.133Z,8.00
2018-12-31T00:38:01.713Z,8.00
2018-12-31T00:40:30.295Z,8.00
2018-12-31T00:42:59.243Z,8.00
2018-12-31T00:45:28.193Z,8.00
2018-12-31T00:47:56.735Z,8.00
2018-12-31T00:50:26.956Z,8.00
2018-12-31T00:52:55.768Z,8.00
2018-12-31T00:55:24.327Z,8.00
2018-12-31T00:57:53.006Z,8.10
2018-12-31T01:00:21.623Z,8.10
2018-12-31T01:02:50.204Z,8.10
2018-12-31T01:05:19.100Z,8.10
2018-12-31T01:07:47.691Z,8.10
2018-12-31T01:10:16.551Z,8.10
2018-12-31T01:12:45.209Z,8.10
2018-12-31T01:15:13.932Z,8.10
2018-12-31T01:17:42.549Z,8.20
2018-12-31T01:20:11.338Z,8.20
2018-12-31T01:22:39.959Z,8.20
2018-12-31T01:25:08.626Z,8.20
2018-12-31T01:27:37.228Z,8.20
2018-12-31T01:30:07.518Z,8.20
2018-12-31T01:32:36.309Z,8.20
2018-12-31T01:35:05.459Z,8.20
2018-12-31T01:37:34.022Z,8.20
2018-12-31T01:40:02.607Z,8.20
2018-12-31T01:42:31.194Z,8.20
2018-12-31T01:44:59.738Z,8.20
2018-12-31T01:47:28.390Z,8.20
2018-12-31T01:49:56.934Z,8.20
2018-12-31T01:52:25.577Z,8.20
2018-12-31T01:54:54.277Z,8.20
2018-12-31T01:57:22.860Z,8.20
2018-12-31T01:59:51.444Z,8.30
2018-12-31T02:02:20.032Z,8.20
2018-12-31T02:04:48.580Z,8.10
2018-12-31T02:07:17.193Z,8.10
2018-12-31T02:09:45.747Z,8.10
2018-12-31T02:12:14.376Z,8.10
2018-12-31T02:14:42.982Z,8.10
2018-12-31T02:17:11.537Z,8.20
2018-12-31T02:19:40.138Z,8.10
2018-12-31T02:22:08.681Z,8.20
2018-12-31T02:24:37.455Z,8.20
2018-12-31T02:27:06.075Z,8.20
2018-12-31T02:29:34.695Z,8.20
2018-12-31T02:32:03.300Z,8.30
2018-12-31T02:34:31.899Z,8.20
2018-12-31T02:37:00.619Z,8.20
2018-12-31T02:39:29.459Z,8.10
2018-12-31T02:41:58.049Z,8.10
2018-12-31T02:44:26.698Z,8.20
2018-12-31T02:46:55.279Z,8.20
2018-12-31T02:49:23.845Z,8.20
2018-12-31T02:51:52.442Z,8.20
2018-12-31T02:54:21.104Z,8.20
2018-12-31T02:56:49.802Z,8.10
2018-12-31T02:59:18.391Z,8.20
2018-12-31T03:01:47.025Z,8.10
2018-12-31T03:04:15.693Z,8.20
2018-12-31T03:06:44.431Z,8.30
2018-12-31T03:09:13.086Z,8.30
2018-12-31T03:11:41.629Z,8.30
2018-12-31T03:14:10.422Z,8.30
2018-12-31T03:16:39.328Z,8.30
2018-12-31T03:19:07.931Z,8.30
2018-12-31T03:21:36.554Z,8.30
2018-12-31T03:24:05.203Z,8.20
2018-12-31T03:26:34.028Z,8.20
2018-12-31T03:29:02.608Z,8.20
2018-12-31T03:31:31.284Z,8.10
2018-12-31T03:33:59.932Z,8.10
2018-12-31T03:36:28.538Z,8.10
2018-12-31T03:38:57.254Z,8.20
2018-12-31T03:41:25.841Z,8.20
2018-12-31T03:43:54.496Z,8.20
2018-12-31T03:46:23.089Z,8.20
2018-12-31T03:48:51.688Z,8.20
2018-12-31T03:51:20.311Z,8.10
2018-12-31T03:53:49.013Z,8.10
2018-12-31T03:56:17.564Z,8.10
2018-12-31T03:58:46.388Z,8.20
2018-12-31T04:01:14.996Z,8.20
2018-12-31T04:03:43.579Z,8.10
2018-12-31T04:06:12.242Z,8.10
2018-12-31T04:08:40.955Z,8.10
2018-12-31T04:11:09.539Z,8.20
2018-12-31T04:13:38.099Z,8.20
2018-12-31T04:16:06.962Z,8.20
2018-12-31T04:18:35.550Z,8.20
2018-12-31T04:21:04.200Z,8.20
2018-12-31T04:23:32.946Z,8.20
2018-12-31T04:26:01.529Z,8.20
2018-12-31T04:28:30.097Z,8.10
2018-12-31T04:30:58.766Z,8.20
2018-12-31T04:33:27.308Z,8.30
2018-12-31T04:35:55.896Z,8.20
2018-12-31T04:38:24.451Z,8.20
2018-12-31T04:40:53.138Z,8.20
2018-12-31T04:43:21.954Z,8.00
2018-12-31T04:45:50.539Z,8.20
2018-12-31T04:48:19.084Z,8.20
2018-12-31T04:50:47.695Z,8.20
2018-12-31T04:53:16.322Z,8.30
2018-12-31T04:55:44.876Z,8.30
2018-12-31T04:58:13.491Z,8.30
2018-12-31T05:00:42.354Z,8.30
2018-12-31T05:03:10.911Z,8.20
2018-12-31T05:05:39.491Z,8.20
2018-12-31T05:08:13.270Z,8.20
2018-12-31T05:10:41.926Z,8.30
2018-12-31T05:13:10.528Z,8.20
2018-12-31T05:15:39.224Z,8.20
2018-12-31T05:18:07.876Z,8.20
2018-12-31T05:20:36.531Z,8.20
2018-12-31T05:23:05.439Z,8.20
2018-12-31T05:25:34.655Z,8.20
2018-12-31T05:28:03.466Z,8.20
2018-12-31T05:30:32.015Z,8.30
2018-12-31T05:33:00.717Z,8.20
2018-12-31T05:35:29.386Z,8.20
2018-12-31T05:37:58.091Z,8.20
2018-12-31T05:40:26.775Z,8.20
2018-12-31T05:42:55.311Z,8.30
2018-12-31T05:45:23.963Z,8.30
2018-12-31T05:47:52.559Z,8.30
2018-12-31T05:50:21.182Z,8.30
2018-12-31T05:52:49.760Z,8.30
2018-12-31T05:55:18.344Z,8.30
2018-12-31T05:57:46.886Z,8.30
2018-12-31T06:00:15.479Z,8.30
2018-12-31T06:02:44.097Z,8.30
2018-12-31T06:05:12.721Z,8.30
2018-12-31T06:07:41.293Z,8.30
2018-12-31T06:10:09.943Z,8.30
2018-12-31T06:12:38.504Z,8.30
2018-12-31T06:15:07.087Z,8.40
2018-12-31T06:17:35.631Z,8.40
2018-12-31T06:20:04.770Z,8.40
2018-12-31T06:22:33.370Z,8.30
2018-12-31T06:25:01.996Z,8.40
2018-12-31T06:27:30.581Z,8.40
2018-12-31T06:29:59.140Z,8.40
2018-12-31T06:32:27.725Z,8.40
2018-12-31T06:34:56.383Z,8.30
2018-12-31T06:37:24.950Z,8.30
2018-12-31T06:39:53.824Z,8.30
2018-12-31T06:42:22.596Z,8.30
2018-12-31T06:44:51.182Z,8.30
2018-12-31T06:47:19.763Z,8.30
2018-12-31T06:49:48.394Z,8.30
2018-12-31T06:52:17.080Z,8.20
2018-12-31T06:54:45.628Z,8.20
2018-12-31T06:57:14.222Z,8.20
2018-12-31T06:59:42.769Z,8.30
2018-12-31T07:02:11.350Z,8.30
2018-12-31T07:04:41.239Z,8.30
2018-12-31T07:07:09.779Z,8.30
2018-12-31T07:09:38.613Z,8.30
2018-12-31T07:12:07.188Z,8.30
2018-12-31T07:14:35.746Z,8.40
2018-12-31T07:17:04.435Z,8.40
2018-12-31T07:19:33.049Z,8.40
2018-12-31T07:22:01.627Z,8.40
2018-12-31T07:24:30.263Z,8.30
2018-12-31T07:26:59.035Z,8.40
2018-12-31T07:29:27.790Z,8.40
2018-12-31T07:31:56.335Z,8.40
2018-12-31T07:34:24.975Z,8.50
2018-12-31T07:36:53.577Z,8.50
2018-12-31T07:39:22.262Z,8.50
2018-12-31T07:41:50.778Z,8.50
2018-12-31T07:44:19.376Z,8.50
2018-12-31T07:46:47.978Z,8.50
2018-12-31T07:49:16.527Z,8.50
2018-12-31T07:51:45.266Z,8.40
2018-12-31T07:54:13.939Z,8.50
2018-12-31T07:56:42.487Z,8.40
2018-12-31T07:59:11.170Z,8.40
2018-12-31T08:01:39.754Z,8.40
2018-12-31T08:04:08.378Z,8.40
2018-12-31T08:06:37.331Z,8.50
2018-12-31T08:09:06.614Z,8.50
2018-12-31T08:11:35.272Z,8.60
2018-12-31T08:14:03.954Z,8.50
2018-12-31T08:16:32.703Z,8.50
2018-12-31T08:19:01.355Z,8.50
2018-12-31T08:21:31.783Z,8.60
2018-12-31T08:24:00.676Z,8.50
2018-12-31T08:26:30.657Z,8.50
2018-12-31T08:28:59.225Z,8.60
2018-12-31T08:31:27.966Z,8.60
2018-12-31T08:33:56.599Z,8.50
2018-12-31T08:36:25.267Z,8.60
2018-12-31T08:38:53.870Z,8.60
2018-12-31T08:41:22.574Z,8.60
2018-12-31T08:43:51.262Z,8.60
2018-12-31T08:46:20.264Z,8.60
2018-12-31T08:48:49.450Z,8.60
2018-12-31T08:51:18.226Z,8.60
2018-12-31T08:53:46.882Z,8.60
2018-12-31T08:56:15.471Z,8.60
2018-12-31T08:58:44.671Z,8.60
2018-12-31T09:01:13.398Z,8.60
2018-12-31T09:04:01.331Z,8.70
2018-12-31T09:06:30.550Z,8.70
2018-12-31T09:08:59.304Z,8.70
2018-12-31T09:11:27.996Z,8.80
2018-12-31T09:13:56.598Z,8.70
2018-12-31T09:16:26.291Z,8.80
2018-12-31T09:18:56.795Z,8.70
2018-12-31T09:21:25.404Z,8.80
2018-12-31T09:23:55.331Z,8.80
2018-12-31T09:26:23.974Z,8.80
2018-12-31T09:28:52.638Z,8.90
2018-12-31T09:31:21.398Z,8.80
2018-12-31T09:33:50.217Z,8.80
2018-12-31T09:36:18.799Z,8.80
2018-12-31T09:38:48.754Z,8.90
2018-12-31T09:41:18.629Z,8.90
2018-12-31T09:43:47.568Z,8.90
2018-12-31T09:46:16.411Z,8.90
2018-12-31T09:48:44.996Z,8.90
2018-12-31T09:51:13.612Z,8.90
2018-12-31T09:53:42.332Z,8.90
2018-12-31T09:56:10.918Z,8.90
2018-12-31T09:58:39.473Z,8.90
2018-12-31T10:01:08.042Z,9.00
2018-12-31T10:03:37.097Z,9.10
2018-12-31T10:06:06.007Z,9.10
2018-12-31T10:08:34.733Z,9.00
2018-12-31T10:11:03.266Z,9.00
2018-12-31T10:13:31.987Z,9.00
2018-12-31T10:16:01.542Z,9.00
2018-12-31T10:18:30.279Z,9.10
2018-12-31T10:20:59.063Z,9.10
2018-12-31T10:23:27.686Z,9.10
2018-12-31T10:25:56.377Z,9.10
2018-12-31T10:28:25.084Z,9.20
2018-12-31T10:30:53.643Z,9.20
2018-12-31T10:33:22.278Z,9.20
2018-12-31T10:35:50.983Z,9.20
2018-12-31T10:38:19.546Z,9.20
2018-12-31T10:40:48.334Z,9.30
2018-12-31T10:43:16.876Z,9.30
2018-12-31T10:45:45.546Z,9.30
2018-12-31T10:48:14.135Z,9.30
2018-12-31T10:50:42.874Z,9.20
2018-12-31T10:53:11.654Z,9.20
2018-12-31T10:55:44.102Z,9.30
2018-12-31T10:58:12.642Z,9.30
2018-12-31T11:00:41.414Z,9.30
2018-12-31T11:03:09.996Z,9.30
2018-12-31T11:05:38.911Z,9.30
2018-12-31T11:08:07.657Z,9.40
2018-12-31T11:10:37.725Z,9.40
2018-12-31T11:13:08.225Z,9.40
2018-12-31T11:15:36.748Z,9.40
2018-12-31T11:18:24.656Z,9.40
2018-12-31T11:20:54.299Z,9.40
2018-12-31T11:23:23.232Z,9.40
2018-12-31T11:25:52.043Z,9.40
2018-12-31T11:28:21.074Z,9.40
2018-12-31T11:30:51.664Z,9.50
2018-12-31T11:33:20.185Z,9.50
2018-12-31T11:35:48.817Z,9.50
2018-12-31T11:38:18.974Z,9.50
2018-12-31T11:40:48.683Z,9.40
2018-12-31T11:43:18.937Z,9.40
2018-12-31T11:45:47.493Z,9.30
2018-12-31T11:48:16.083Z,9.40
2018-12-31T11:50:44.763Z,9.40
2018-12-31T11:53:13.371Z,9.50
2018-12-31T11:55:42.364Z,9.50
2018-12-31T11:58:12.853Z,9.50
2018-12-31T12:00:42.152Z,9.60
2018-12-31T12:03:10.734Z,9.50
2018-12-31T12:05:39.501Z,9.50
2018-12-31T12:08:08.106Z,9.50
2018-12-31T12:10:38.411Z,9.50
2018-12-31T12:13:07.154Z,9.50
2018-12-31T12:15:35.706Z,9.60
2018-12-31T12:18:04.592Z,9.60
2018-12-31T12:20:33.226Z,9.60
2018-12-31T12:23:02.151Z,9.70
2018-12-31T12:25:30.754Z,9.50
2018-12-31T12:27:59.486Z,9.50
2018-12-31T12:30:28.435Z,9.40
2018-12-31T12:32:57.066Z,9.50
2018-12-31T12:35:25.883Z,9.50
2018-12-31T12:37:54.442Z,9.50
2018-12-31T12:40:23.009Z,9.50
2018-12-31T12:42:52.127Z,9.50
2018-12-31T12:45:20.794Z,9.50
2018-12-31T12:47:51.035Z,9.50
2018-12-31T12:50:19.619Z,9.60
2018-12-31T12:52:48.441Z,9.60
2018-12-31T12:55:16.942Z,9.50
2018-12-31T12:57:45.807Z,9.60
2018-12-31T13:00:33.686Z,9.60
2018-12-31T13:03:02.291Z,9.60
2018-12-31T13:05:30.900Z,9.60
2018-12-31T13:07:59.543Z,9.60
2018-12-31T13:10:28.108Z,9.60
2018-12-31T13:12:56.799Z,9.70
2018-12-31T13:15:25.383Z,9.70
2018-12-31T13:17:53.968Z,9.70
2018-12-31T13:20:22.649Z,9.70
2018-12-31T13:22:51.219Z,9.70
2018-12-31T13:25:19.879Z,9.70
2018-12-31T13:27:48.526Z,9.80
2018-12-31T13:30:17.454Z,9.70
2018-12-31T13:32:46.214Z,9.70
2018-12-31T13:35:14.930Z,9.70
2018-12-31T13:37:43.478Z,9.70
2018-12-31T13:40:12.062Z,9.70
2018-12-31T13:42:40.962Z,9.70
2018-12-31T13:45:09.896Z,9.60
2018-12-31T13:47:38.462Z,9.70
2018-12-31T13:50:07.275Z,9.70
2018-12-31T13:52:35.918Z,9.60
2018-12-31T13:55:05.479Z,9.60
2018-12-31T13:57:35.168Z,9.60
2018-12-31T14:00:05.015Z,9.70
2018-12-31T14:02:33.640Z,9.80
2018-12-31T14:05:02.359Z,9.90
2018-12-31T14:07:30.944Z,9.80
2018-12-31T14:09:59.506Z,9.80
2018-12-31T14:12:28.060Z,9.80
2018-12-31T14:14:56.646Z,9.80
2018-12-31T14:17:25.268Z,9.80
2018-12-31T14:19:54.126Z,9.80
2018-12-31T14:22:22.752Z,9.90
2018-12-31T14:24:51.400Z,9.80
2018-12-31T14:27:20.182Z,9.80
2018-12-31T14:29:48.771Z,9.70
2018-12-31T14:32:17.352Z,9.80
2018-12-31T14:34:45.964Z,9.80
2018-12-31T14:37:14.522Z,9.90
2018-12-31T14:39:43.108Z,9.90
2018-12-31T14:42:11.692Z,9.80
2018-12-31T14:44:40.759Z,9.90
2018-12-31T14:47:09.313Z,9.90
2018-12-31T14:49:38.136Z,9.80
2018-12-31T14:52:06.791Z,9.90
2018-12-31T14:54:35.472Z,9.90
2018-12-31T14:57:04.606Z,9.90
2018-12-31T14:59:35.879Z,10.00
2018-12-31T15:02:04.587Z,9.90
2018-12-31T15:04:33.374Z,9.90
2018-12-31T15:07:01.981Z,9.90
2018-12-31T15:09:31.082Z,9.80
2018-12-31T15:11:59.767Z,9.90
2018-12-31T15:14:28.420Z,9.80
2018-12-31T15:16:58.372Z,9.70
2018-12-31T15:19:27.071Z,9.70
2018-12-31T15:21:55.739Z,9.70
2018-12-31T15:24:24.306Z,9.80
2018-12-31T15:26:52.879Z,9.70
2018-12-31T15:29:21.510Z,9.70
2018-12-31T15:31:50.163Z,9.70
2018-12-31T15:34:19.550Z,9.70
2018-12-31T15:36:50.516Z,9.70
2018-12-31T15:39:19.106Z,9.70
2018-12-31T15:41:47.696Z,9.70
2018-12-31T15:44:16.278Z,9.70
2018-12-31T15:46:45.374Z,9.70
2018-12-31T15:49:13.923Z,9.70
2018-12-31T15:51:42.551Z,9.70
2018-12-31T15:54:11.242Z,9.90
2018-12-31T15:56:39.934Z,9.80
2018-12-31T15:59:09.046Z,9.80
2018-12-31T16:01:37.629Z,9.80
2018-12-31T16:04:06.256Z,9.70
2018-12-31T16:06:34.827Z,9.70
2018-12-31T16:09:04.694Z,9.70
2018-12-31T16:11:33.368Z,9.70
2018-12-31T16:14:01.912Z,9.70
2018-12-31T16:16:30.536Z,9.70
2018-12-31T16:18:59.079Z,9.70
2018-12-31T16:21:27.738Z,9.70
2018-12-31T16:23:56.348Z,9.70
2018-12-31T16:26:24.939Z,9.70
2018-12-31T16:28:53.552Z,9.70
2018-12-31T16:31:22.213Z,9.70
2018-12-31T16:33:50.888Z,9.70
2018-12-31T16:36:19.651Z,9.70
2018-12-31T16:38:48.258Z,9.70
2018-12-31T16:41:16.871Z,9.80
2018-12-31T16:43:45.460Z,9.80
2018-12-31T16:46:14.159Z,9.80
2018-12-31T16:48:42.774Z,9.80
2018-12-31T16:51:11.887Z,9.80
2018-12-31T16:53:40.580Z,9.80
2018-12-31T16:56:09.584Z,9.70
2018-12-31T16:58:38.261Z,9.70
2018-12-31T17:01:06.887Z,9.80
2018-12-31T17:03:36.410Z,9.80
2018-12-31T17:06:04.958Z,9.80
2018-12-31T17:08:33.561Z,9.80
2018-12-31T17:11:02.243Z,9.80
2018-12-31T17:13:31.115Z,9.80
2018-12-31T17:15:59.757Z,9.80
2018-12-31T17:18:28.309Z,9.70
2018-12-31T17:20:56.907Z,9.80
2018-12-31T17:23:25.483Z,9.80
2018-12-31T17:25:54.186Z,9.90
2018-12-31T17:28:22.732Z,9.80
2018-12-31T17:30:51.623Z,9.80
2018-12-31T17:33:20.303Z,9.80
2018-12-31T17:35:48.817Z,9.90
2018-12-31T17:38:17.554Z,9.90
2018-12-31T17:40:46.318Z,9.90
2018-12-31T17:43:15.317Z,9.90
2018-12-31T17:45:43.947Z,10.00
2018-12-31T17:48:12.622Z,10.00
2018-12-31T17:50:41.218Z,9.90
2018-12-31T17:53:09.802Z,9.90
2018-12-31T17:55:38.881Z,9.90
2018-12-31T17:58:07.629Z,10.00
2018-12-31T18:00:36.650Z,10.00
2018-12-31T18:03:05.301Z,10.00
2018-12-31T18:05:33.901Z,10.00
2018-12-31T18:08:02.962Z,10.00
2018-12-31T18:10:31.637Z,10.00
2018-12-31T18:13:00.288Z,9.90
2018-12-31T18:15:28.871Z,10.00
2018-12-31T18:17:57.441Z,10.00
2018-12-31T18:20:26.089Z,10.00
2018-12-31T18:23:14.006Z,10.00
2018-12-31T18:25:42.609Z,10.00
2018-12-31T18:28:11.175Z,10.10
2018-12-31T18:30:40.430Z,10.00
2018-12-31T18:33:09.037Z,10.00
2018-12-31T18:35:37.646Z,10.00
2018-12-31T18:38:06.268Z,10.00
2018-12-31T18:40:34.981Z,10.10
2018-12-31T18:43:03.902Z,10.10
2018-12-31T18:45:34.393Z,10.10
2018-12-31T18:48:03.006Z,10.10
2018-12-31T18:50:31.744Z,10.10
2018-12-31T18:53:00.342Z,10.10
2018-12-31T18:55:28.963Z,10.10
2018-12-31T18:57:57.566Z,10.10
2018-12-31T19:00:26.233Z,10.10
2018-12-31T19:02:54.981Z,10.10
2018-12-31T19:05:23.557Z,10.10
2018-12-31T19:08:11.495Z,10.10
2018-12-31T19:10:40.167Z,10.10
2018-12-31T19:13:08.773Z,10.10
2018-12-31T19:15:37.382Z,10.00
2018-12-31T19:18:06.168Z,10.00
2018-12-31T19:20:34.711Z,9.90
2018-12-31T19:23:03.292Z,9.90
2018-12-31T19:25:31.844Z,10.00
2018-12-31T19:28:00.451Z,10.00
2018-12-31T19:30:29.110Z,10.10
2018-12-31T19:32:57.951Z,10.10
2018-12-31T19:35:26.526Z,10.00
2018-12-31T19:37:55.099Z,10.00
2018-12-31T19:40:23.690Z,10.00
2018-12-31T19:42:52.520Z,10.00
2018-12-31T19:45:21.497Z,10.00
2018-12-31T19:47:50.233Z,10.00
2018-12-31T19:50:18.850Z,10.00
2018-12-31T19:52:47.399Z,10.00
2018-12-31T19:55:16.018Z,10.10
2018-12-31T19:57:44.618Z,10.10
2018-12-31T20:00:13.224Z,10.10
2018-12-31T20:02:41.783Z,10.10
2018-12-31T20:05:10.457Z,10.10
2018-12-31T20:07:39.207Z,10.20
2018-12-31T20:10:07.943Z,10.20
2018-12-31T20:12:36.509Z,10.10
2018-12-31T20:15:06.226Z,10.10
2018-12-31T20:17:34.776Z,10.10
2018-12-31T20:20:03.359Z,10.10
2018-12-31T20:22:32.046Z,10.20
2018-12-31T20:25:01.314Z,10.10
2018-12-31T20:27:29.864Z,10.10
2018-12-31T20:29:58.450Z,10.10
2018-12-31T20:32:27.040Z,10.10
2018-12-31T20:34:55.590Z,10.00
2018-12-31T20:37:24.258Z,10.10
2018-12-31T20:39:52.862Z,10.10
2018-12-31T20:42:21.447Z,10.10
2018-12-31T20:44:50.674Z,10.10
2018-12-31T20:47:19.249Z,10.00
2018-12-31T20:49:47.806Z,10.10
2018-12-31T20:52:16.413Z,10.10
2018-12-31T20:54:45.271Z,10.00
2018-12-31T20:57:13.899Z,10.00
2018-12-31T20:59:42.494Z,10.00
2018-12-31T21:02:11.270Z,10.00
2018-12-31T21:04:39.875Z,10.00
2018-12-31T21:07:08.907Z,10.00
2018-12-31T21:09:37.506Z,10.00
2018-12-31T21:12:06.295Z,10.10
2018-12-31T21:14:34.967Z,10.20
2018-12-31T21:17:03.630Z,10.20
2018-12-31T21:19:32.835Z,10.20
2018-12-31T21:22:01.493Z,10.10
2018-12-31T21:24:30.207Z,10.10
2018-12-31T21:26:58.785Z,10.00
2018-12-31T21:29:27.604Z,10.00
2018-12-31T21:31:56.431Z,10.00
2018-12-31T21:34:25.384Z,9.90
2018-12-31T21:36:53.950Z,10.00
2018-12-31T21:39:22.548Z,10.00
2018-12-31T21:41:51.144Z,10.00
2018-12-31T21:44:20.191Z,10.00
2018-12-31T21:46:48.959Z,10.00
2018-12-31T21:49:17.525Z,10.00
2018-12-31T21:52:05.460Z,10.00
2018-12-31T21:54:39.295Z,10.00
2018-12-31T21:57:07.890Z,10.10
2018-12-31T21:59:36.546Z,10.10
2018-12-31T22:02:05.142Z,10.10
2018-12-31T22:04:33.747Z,10.20
2018-12-31T22:07:02.487Z,10.20
2018-12-31T22:09:31.101Z,10.20
2018-12-31T22:11:59.705Z,10.20
2018-12-31T22:14:28.309Z,10.10
2018-12-31T22:16:56.906Z,10.10
2018-12-31T22:19:25.790Z,10.10
2018-12-31T22:21:55.290Z,10.10
2018-12-31T22:24:23.890Z,10.20
2018-12-31T22:26:52.633Z,10.10
2018-12-31T22:29:21.198Z,10.20
2018-12-31T22:31:51.367Z,10.10
2018-12-31T22:34:20.411Z,10.10
2018-12-31T22:36:49.199Z,10.10
2018-12-31T22:39:18.125Z,10.10
2018-12-31T22:41:46.854Z,10.00
2018-12-31T22:44:15.489Z,10.00
2018-12-31T22:46:44.207Z,10.00
2018-12-31T22:49:12.871Z,10.10
2018-12-31T22:51:41.675Z,10.10
2018-12-31T22:54:10.441Z,10.10
2018-12-31T22:56:39.054Z,10.10
2018-12-31T22:59:07.711Z,10.10
2018-12-31T23:01:36.446Z,10.10
2018-12-31T23:04:05.114Z,10.10
2018-12-31T23:06:33.798Z,10.10
2018-12-31T23:09:03.932Z,10.10
2018-12-31T23:11:32.452Z,10.20
2018-12-31T23:14:01.083Z,10.20
2018-12-31T23:16:29.794Z,10.10
2018-12-31T23:18:58.438Z,10.10
2018-12-31T23:21:27.236Z,10.10
2018-12-31T23:23:56.018Z,10.10
2018-12-31T23:26:26.272Z,10.10
2018-12-31T23:28:54.883Z,10.10
2018-12-31T23:31:23.597Z,10.20
2018-12-31T23:33:52.214Z,10.10
2018-12-31T23:36:20.983Z,10.10
2018-12-31T23:38:49.961Z,10.00
2018-12-31T23:41:18.631Z,10.00
2018-12-31T23:43:47.236Z,10.00
2018-12-31T23:46:15.966Z,10.10
2018-12-31T23:48:44.541Z,10.10
2018-12-31T23:51:14.528Z,10.20
2018-12-31T23:53:43.348Z,10.20
2018-12-31T23:56:12.033Z,10.20
2018-12-31T23:58:40.746Z,10.20
